Time;durP1;ratioP1;P1;durP2;ratioP2;P2;SDS_P1;SDS_P2;PMS_P1;PMS_P2;Temp;Humidity;BMP_temperature;BMP_pressure;BME280_temperature;BME280_humidity;BME280_pressure;Samples;Min_cycle;Max_cycle;Signal;HPM_P1;HPM_P2
2022/06/09 00:01:22;;;;;;;1.50;1.40;;;;;;;20.58;75.07;96649.13;6089203;23;20195;-88
2022/06/09 00:04:05;;;;;;;1.80;1.43;;;;;;;21.92;74.98;96858.66;6091684;23;20678;-89
2022/06/09 00:06:46;;;;;;;1.63;1.40;;;;;;;20.58;74.87;96623.59;6089729;23;20191;-90
2022/06/09 00:09:13;;;;;;;1.80;1.37;;;;;;;19.65;75.00;96478.88;6089320;23;20245;-89
2022/06/09 00:11:45;;;;;;;2.60;1.83;;;;;;;19.73;74.88;96501.16;6066812;23;20229;-88
2022/06/09 00:14:30;;;;;;;1.50;1.40;;;;;;;19.32;74.66;96414.50;6089900;23;20698;-89
2022/06/09 00:16:58;;;;;;;1.87;1.50;;;;;;;19.24;74.83;96421.06;6091666;23;20167;-89
2022/06/09 00:19:28;;;;;;;1.63;1.43;;;;;;;19.78;74.97;96504.63;6066109;23;20178;-89
2022/06/09 00:21:55;;;;;;;1.67;1.40;;;;;;;19.93;74.81;96539.78;6087901;23;20190;-89
2022/06/09 00:24:23;;;;;;;1.80;1.67;;;;;;;19.82;74.94;96534.47;6087310;23;20209;-89
2022/06/09 00:26:53;;;;;;;1.40;1.30;;;;;;;19.79;74.76;96493.63;6064404;23;20179;-89
2022/06/09 00:29:23;;;;;;;1.43;1.30;;;;;;;20.63;74.89;96639.00;6089349;23;20235;-89
2022/06/09 00:31:53;;;;;;;1.63;1.50;;;;;;;21.36;74.99;96764.69;6066498;23;20599;-89
2022/06/09 00:34:23;;;;;;;1.50;1.40;;;;;;;19.92;74.77;96515.97;6062240;23;20195;-89
2022/06/09 00:36:53;;;;;;;1.57;1.40;;;;;;;19.49;75.00;96459.00;6064274;23;20198;-90
2022/06/09 00:39:23;;;;;;;1.30;1.20;;;;;;;19.30;74.76;96426.34;6089183;23;20195;-88
2022/06/09 00:41:53;;;;;;;1.33;1.23;;;;;;;19.28;74.85;96416.13;6090202;23;20618;-89
2022/06/09 00:44:28;;;;;;;1.73;1.40;;;;;;;21.92;75.01;96857.78;6084951;23;20229;-89
2022/06/09 00:47:02;;;;;;;1.50;1.40;;;;;;;19.99;74.86;96537.34;6120920;23;20633;-89
2022/06/09 00:49:42;;;;;;;1.50;1.40;;;;;;;19.40;75.06;96457.16;6117903;23;20201;-89
2022/06/09 00:52:13;;;;;;;1.40;1.30;;;;;;;19.98;75.16;96551.78;6116220;23;20190;-88
2022/06/09 00:54:45;;;;;;;1.47;1.37;;;;;;;20.69;74.68;96651.88;6097704;23;20194;-91
2022/06/09 00:57:18;;;;;;;2.30;1.50;;;;;;;20.58;75.01;96646.56;6119177;23;20190;-89
2022/06/09 00:59:49;;;;;;;2.10;1.30;;;;;;;19.34;75.02;96434.09;6117463;23;20179;-88
2022/06/09 01:02:18;;;;;;;1.40;1.30;;;;;;;19.51;75.04;96458.19;6117446;23;20233;-88
2022/06/09 01:04:49;;;;;;;1.40;1.30;;;;;;;19.24;75.09;96434.69;6093059;23;20194;-88
2022/06/09 01:07:23;;;;;;;1.63;1.47;;;;;;;19.45;74.74;96455.53;6094927;23;20175;-88
2022/06/09 01:09:53;;;;;;;1.50;1.40;;;;;;;21.91;75.16;96869.72;6095520;23;20191;-88
2022/06/09 01:12:27;;;;;;;1.40;1.30;;;;;;;20.51;75.26;96647.25;6092994;23;20180;-88
2022/06/09 01:15:01;;;;;;;1.40;1.30;;;;;;;21.40;75.16;96790.34;6094329;23;20193;-90
2022/06/09 01:18:09;;;;;;;1.57;1.47;;;;;;;19.60;74.70;96493.22;6117263;23;20197;-88
2022/06/09 01:20:47;;;;;;;1.57;1.37;;;;;;;19.41;74.80;96476.69;6101431;23;20178;-88
2022/06/09 01:23:26;;;;;;;1.60;1.50;;;;;;;21.91;75.00;96871.41;6094895;23;20166;-88
2022/06/09 01:26:07;;;;;;;1.60;1.50;;;;;;;20.57;74.85;96644.00;6142832;23;20589;-89
2022/06/09 01:28:55;;;;;;;1.50;1.40;;;;;;;19.77;75.11;96509.69;6116670;23;20541;-88
2022/06/09 01:31:54;;;;;;;1.50;1.40;;;;;;;21.91;74.94;96879.97;6095027;23;20174;-88
2022/06/09 01:34:28;;;;;;;1.30;1.20;;;;;;;21.92;75.16;96871.44;6061897;23;20254;-90
2022/06/09 01:37:16;;;;;;;1.60;1.30;;;;;;;21.44;74.98;96807.44;6141071;23;20182;-89
2022/06/09 01:39:54;;;;;;;1.40;1.30;;;;;;;19.20;75.07;96426.94;6117700;23;20178;-89
2022/06/09 01:42:28;;;;;;;1.27;1.20;;;;;;;19.57;75.05;96488.06;6095613;23;20248;-89
2022/06/09 01:45:08;;;;;;;1.57;1.40;;;;;;;21.82;75.06;96872.13;6117595;23;20661;-89
2022/06/09 01:48:04;;;;;;;1.80;1.33;;;;;;;21.89;75.02;96879.06;6096184;23;20178;-90
2022/06/09 01:50:56;;;;;;;1.50;1.40;;;;;;;19.63;75.01;96498.38;6119336;23;20174;-88
2022/06/09 01:53:34;;;;;;;1.33;1.23;;;;;;;21.90;75.06;96874.81;6097464;23;20239;-89
2022/06/09 01:56:39;;;;;;;1.33;1.30;;;;;;;20.03;74.97;96567.19;6119047;23;20194;-88
2022/06/09 01:59:12;;;;;;;1.40;1.30;;;;;;;19.28;75.15;96459.44;6107504;23;20169;-91
2022/06/09 02:01:50;;;;;;;1.40;1.30;;;;;;;21.50;75.37;96816.94;6093953;23;20185;-88
2022/06/09 02:04:22;;;;;;;1.50;1.40;;;;;;;19.57;74.64;96490.63;6094151;23;20209;-88
2022/06/09 02:06:55;;;;;;;1.87;1.43;;;;;;;19.68;74.81;96518.03;6094408;23;20261;-89
2022/06/09 02:09:26;;;;;;;1.63;1.50;;;;;;;19.72;75.04;96531.72;6094140;23;20198;-88
2022/06/09 02:12:12;;;;;;;1.50;1.40;;;;;;;20.76;74.81;96720.09;6101948;23;20155;-89
2022/06/09 02:14:47;;;;;;;1.77;1.40;;;;;;;19.23;75.04;96444.84;6118972;23;20277;-88
2022/06/09 02:17:17;;;;;;;1.47;1.37;;;;;;;21.91;75.18;96887.63;6095465;23;20174;-88
2022/06/09 02:19:47;;;;;;;1.50;1.40;;;;;;;19.27;74.92;96452.59;6093928;23;20197;-88
2022/06/09 02:22:21;;;;;;;1.60;1.50;;;;;;;19.24;74.91;96444.88;6118027;23;20193;-90
2022/06/09 02:24:55;;;;;;;1.33;1.23;;;;;;;21.45;74.90;96808.31;6094767;23;20193;-89
2022/06/09 02:27:22;;;;;;;1.37;1.27;;;;;;;19.50;74.82;96492.16;6119385;23;20175;-90
2022/06/09 02:29:52;;;;;;;1.67;1.57;;;;;;;19.63;75.02;96508.56;6094436;23;20194;-88
2022/06/09 02:32:23;;;;;;;1.60;1.50;;;;;;;19.25;74.90;96449.16;6096423;23;20197;-90
2022/06/09 02:34:54;;;;;;;1.93;1.40;;;;;;;21.38;75.20;96796.28;6115535;23;20210;-89
2022/06/09 02:37:21;;;;;;;1.33;1.27;;;;;;;19.51;75.11;96501.53;6092605;23;20183;-90
2022/06/09 02:39:50;;;;;;;1.37;1.27;;;;;;;19.25;74.92;96449.16;6117875;23;20166;-88
2022/06/09 02:42:23;;;;;;;1.50;1.30;;;;;;;21.84;75.17;96873.00;6093040;23;20257;-89
2022/06/09 02:44:51;;;;;;;1.50;1.40;;;;;;;19.91;75.07;96546.53;6094103;23;20194;-88
2022/06/09 02:47:25;;;;;;;1.63;1.53;;;;;;;19.93;74.97;96553.38;6096124;23;20197;-88
2022/06/09 02:49:56;;;;;;;1.37;1.27;;;;;;;19.32;75.16;96461.22;6095304;23;20190;-89
2022/06/09 02:52:24;;;;;;;1.50;1.40;;;;;;;19.62;74.88;96512.81;6095988;23;20174;-89
2022/06/09 02:54:54;;;;;;;3.37;1.50;;;;;;;19.70;74.87;96515.50;6092642;23;20197;-89
2022/06/09 02:57:38;;;;;;;2.27;1.60;;;;;;;21.28;74.77;96819.91;6102100;23;20177;-88
2022/06/09 03:00:09;;;;;;;1.43;1.33;;;;;;;19.70;74.80;96528.25;6120103;23;20170;-90
2022/06/09 03:02:39;;;;;;;1.50;1.40;;;;;;;20.05;74.94;96593.59;6120894;23;20167;-89
2022/06/09 03:05:09;;;;;;;1.47;1.37;;;;;;;19.70;74.69;96528.25;6094815;23;20194;-88
2022/06/09 03:07:43;;;;;;;1.40;1.30;;;;;;;21.82;75.04;96884.03;6095168;23;20164;-89
2022/06/09 03:10:12;;;;;;;1.40;1.30;;;;;;;20.22;74.92;96611.81;6119037;23;20193;-90
2022/06/09 03:12:42;;;;;;;1.50;1.40;;;;;;;19.23;75.15;96460.09;6092837;23;20174;-87
2022/06/09 03:15:15;;;;;;;1.67;1.50;;;;;;;19.70;74.96;96524.03;6096379;23;20211;-89
2022/06/09 03:17:42;;;;;;;1.57;1.47;;;;;;;19.84;75.46;96570.19;6094622;23;20210;-89
2022/06/09 03:20:18;;;;;;;1.60;1.50;;;;;;;20.17;75.05;96624.47;6093800;23;20230;-88
2022/06/09 03:22:45;;;;;;;1.30;1.20;;;;;;;19.75;75.04;96553.00;6097251;23;20180;-89
2022/06/09 03:25:12;;;;;;;1.30;1.20;;;;;;;21.44;75.07;96838.13;6094483;23;20198;-90
2022/06/09 03:27:44;;;;;;;1.37;1.30;;;;;;;21.42;74.99;96826.16;6101128;23;20178;-89
2022/06/09 03:30:17;;;;;;;1.33;1.27;;;;;;;19.94;74.88;96572.97;6107210;23;20186;-88
2022/06/09 03:32:45;;;;;;;1.50;1.40;;;;;;;20.32;74.98;96641.78;6123459;23;20250;-89
2022/06/09 03:35:12;;;;;;;1.30;1.20;;;;;;;20.36;75.01;96677.59;6149657;23;20199;-89
2022/06/09 03:37:45;;;;;;;1.20;1.20;;;;;;;19.67;74.79;96563.88;6126639;23;20182;-88
2022/06/09 03:40:14;;;;;;;1.40;1.30;;;;;;;21.35;74.95;96837.09;6105289;23;20177;-90
2022/06/09 03:42:47;;;;;;;1.40;1.30;;;;;;;21.84;75.01;96920.75;6106132;23;20174;-88
2022/06/09 03:45:17;;;;;;;1.40;1.30;;;;;;;20.10;74.90;96634.50;6101895;23;20187;-89
2022/06/09 03:47:45;;;;;;;1.13;1.13;;;;;;;19.49;74.82;96538.00;6079727;23;20165;-89
2022/06/09 03:50:20;;;;;;;1.27;1.17;;;;;;;19.72;74.89;96550.38;6102564;23;20195;-88
2022/06/09 03:52:50;;;;;;;1.40;1.30;;;;;;;19.58;74.96;96543.28;6079478;23;20210;-90
2022/06/09 03:55:22;;;;;;;1.10;1.10;;;;;;;19.71;75.12;96570.75;6124638;23;20195;-89
2022/06/09 03:57:51;;;;;;;1.27;1.17;;;;;;;20.56;75.20;96698.41;6098816;23;20175;-88
2022/06/09 04:00:27;;;;;;;1.40;1.30;;;;;;;19.44;75.03;96521.75;6101694;23;20159;-88
2022/06/09 04:02:54;;;;;;;1.43;1.33;;;;;;;21.84;75.20;96915.63;6121971;23;20174;-88
2022/06/09 04:05:24;;;;;;;1.40;1.30;;;;;;;19.48;74.53;96549.88;6098863;23;20218;-88
2022/06/09 04:07:52;;;;;;;1.40;1.30;;;;;;;19.52;74.95;96525.31;6077358;23;20174;-90
2022/06/09 04:10:23;;;;;;;1.40;1.30;;;;;;;19.58;74.82;96566.22;6127465;23;20273;-88
2022/06/09 04:12:50;;;;;;;1.43;1.33;;;;;;;21.80;74.93;96931.75;6126557;23;20158;-90
2022/06/09 04:15:22;;;;;;;1.20;1.20;;;;;;;21.90;74.83;96952.41;6126042;23;20195;-91
2022/06/09 04:17:53;;;;;;;1.57;1.30;;;;;;;19.40;74.81;96525.06;6125735;23;20202;-91
2022/06/09 04:20:24;;;;;;;1.50;1.30;;;;;;;19.61;74.96;96574.81;6100293;23;20247;-91
2022/06/09 04:22:52;;;;;;;1.10;1.10;;;;;;;19.34;74.44;96527.47;6101855;23;20179;-90
2022/06/09 04:25:33;;;;;;;1.40;1.30;;;;;;;19.37;74.38;96540.28;6107162;23;20213;-90
2022/06/09 04:28:00;;;;;;;1.40;1.30;;;;;;;20.55;74.08;96748.63;6102648;23;20711;-88
2022/06/09 04:30:30;;;;;;;1.27;1.17;;;;;;;19.23;74.10;96499.19;6081439;23;20210;-90
2022/06/09 04:33:04;;;;;;;1.50;1.40;;;;;;;21.89;74.21;96957.50;6105014;23;20171;-89
2022/06/09 04:35:34;;;;;;;1.23;1.13;;;;;;;21.84;74.11;96948.91;6129239;23;20175;-89
2022/06/09 04:38:03;;;;;;;1.50;1.40;;;;;;;21.90;73.94;96956.69;6105729;23;20195;-90
2022/06/09 04:40:35;;;;;;;1.30;1.20;;;;;;;19.64;73.77;96592.72;6129764;23;20155;-90
2022/06/09 04:43:06;;;;;;;1.27;1.17;;;;;;;20.54;74.25;96736.66;6081870;23;20163;-91
2022/06/09 04:45:37;;;;;;;3.00;1.30;;;;;;;19.69;73.83;96603.84;6092222;23;20182;-90
2022/06/09 04:48:07;;;;;;;1.73;1.13;;;;;;;19.48;73.54;96554.97;6111404;23;20182;-88
2022/06/09 04:50:38;;;;;;;1.80;1.30;;;;;;;19.92;74.06;96655.34;6110749;23;20198;-90
2022/06/09 04:55:43;;;;;;;1.10;1.10;;;;;;;20.31;74.07;96717.44;6148076;23;20187;-90
2022/06/09 04:58:14;;;;;;;1.30;1.13;;;;;;;21.87;74.03;96974.53;6082005;23;20218;-90
2022/06/09 05:00:51;;;;;;;1.10;1.10;;;;;;;21.89;73.99;96981.41;6105961;23;20170;-90
2022/06/09 05:03:32;;;;;;;1.40;1.30;;;;;;;19.73;73.95;96623.50;6078761;23;20205;-91
2022/06/09 05:06:01;;;;;;;1.30;1.30;;;;;;;19.78;74.12;96651.66;6087470;23;20215;-90
2022/06/09 05:08:29;;;;;;;2.53;1.10;;;;;;;20.52;73.86;96758.72;6081618;23;20179;-90
2022/06/09 05:11:01;;;;;;;1.27;1.27;;;;;;;20.47;74.25;96752.69;6082374;23;20183;-91
2022/06/09 05:13:28;;;;;;;1.50;1.40;;;;;;;19.90;73.75;96665.50;6104426;23;20175;-88
2022/06/09 05:15:57;;;;;;;1.40;1.27;;;;;;;19.62;73.80;96614.75;6082358;23;20175;-89
2022/06/09 05:18:29;;;;;;;1.20;1.20;;;;;;;20.42;73.76;96738.97;6104716;23;20174;-89
2022/06/09 05:21:01;;;;;;;1.40;1.30;;;;;;;21.77;73.94;96976.03;6125490;23;20206;-91
2022/06/09 05:23:29;;;;;;;1.20;1.10;;;;;;;19.27;73.71;96568.94;6082182;23;20159;-90
2022/06/09 05:26:03;;;;;;;1.10;1.10;;;;;;;19.67;73.64;96640.34;6099657;23;20186;-90
2022/06/09 05:28:33;;;;;;;1.30;1.20;;;;;;;20.40;73.70;96753.38;6076007;23;20238;-91
2022/06/09 05:31:00;;;;;;;1.60;1.50;;;;;;;20.48;73.64;96779.94;6071529;23;20191;-91
2022/06/09 05:33:26;;;;;;;1.20;1.20;;;;;;;20.46;73.60;96757.75;6096355;23;20223;-91
2022/06/09 05:35:56;;;;;;;1.10;1.10;;;;;;;21.13;73.70;96884.38;6096982;23;20195;-92
2022/06/09 06:25:49;;;;;;;1.63;1.53;;;;;;;20.23;73.69;96762.38;6154877;23;20202;-92
2022/06/09 06:28:20;;;;;;;2.00;1.90;;;;;;;19.92;73.87;96734.38;6082713;23;20162;-89
2022/06/09 19:19:53;;;;;;;1.20;1.20;;;;;;;21.50;73.17;97594.22;6111208;23;1627011;-92
2022/06/09 19:22:20;;;;;;;1.40;1.30;;;;;;;21.24;72.50;97570.41;6131953;23;20197;-92
2022/06/09 19:24:46;;;;;;;1.20;1.20;;;;;;;21.01;72.96;97519.38;6131343;23;20167;-91
2022/06/09 19:27:13;;;;;;;1.57;1.47;;;;;;;21.19;72.57;97564.28;6149397;23;20201;-92
2022/06/09 19:29:41;;;;;;;1.53;1.30;;;;;;;20.00;72.66;97339.91;6154918;23;20167;-91
2022/06/09 19:32:08;;;;;;;1.20;1.20;;;;;;;20.83;72.79;97503.44;6131475;23;20198;-92
2022/06/09 19:34:34;;;;;;;1.20;1.20;;;;;;;21.11;72.95;97552.94;6131523;23;20162;-91
2022/06/09 19:37:02;;;;;;;2.53;1.20;;;;;;;20.89;72.73;97514.72;6131870;23;20210;-91
2022/06/09 19:39:28;;;;;;;1.30;1.20;;;;;;;21.47;72.67;97624.81;6182844;23;20355;-91
2022/06/09 19:41:55;;;;;;;1.20;1.10;;;;;;;20.73;72.61;97498.88;6157055;23;20192;-91
2022/06/09 19:44:22;;;;;;;1.30;1.20;;;;;;;21.52;72.82;97625.78;6157345;23;20579;-90
2022/06/09 19:46:49;;;;;;;1.07;1.07;;;;;;;20.79;72.75;97520.38;6181750;23;20182;-91
2022/06/09 19:49:15;;;;;;;2.00;1.20;;;;;;;20.98;72.72;97550.81;6155990;23;20147;-92
2022/06/09 19:51:42;;;;;;;1.40;1.30;;;;;;;20.70;72.48;97512.41;6147221;23;20194;-92
2022/06/09 19:54:08;;;;;;;1.47;1.37;;;;;;;20.38;72.35;97449.22;6181675;23;20154;-91
2022/06/09 19:56:37;;;;;;;1.20;1.20;;;;;;;20.05;72.71;97411.50;6182040;23;20203;-91
2022/06/09 19:59:05;;;;;;;1.30;1.20;;;;;;;19.72;72.51;97350.03;6182221;23;20194;-92
2022/06/09 20:01:32;;;;;;;1.23;1.20;;;;;;;20.82;72.52;97551.13;6133397;23;20162;-93
2022/06/09 20:03:59;;;;;;;1.27;1.27;;;;;;;20.95;72.57;97565.16;6182079;23;20158;-91
2022/06/09 20:06:29;;;;;;;1.23;1.20;;;;;;;21.54;72.75;97672.75;6181609;23;20209;-90
2022/06/09 20:08:57;;;;;;;1.40;1.30;;;;;;;20.50;72.57;97510.88;6156697;23;20159;-92
2022/06/09 20:11:24;;;;;;;1.30;1.20;;;;;;;20.46;72.61;97503.09;6133098;23;20182;-92
2022/06/09 20:13:51;;;;;;;1.40;1.30;;;;;;;21.60;72.90;97714.75;6157676;23;20159;-92
2022/06/09 20:16:19;;;;;;;1.53;1.43;;;;;;;20.73;72.75;97553.38;6157283;23;20182;-92
2022/06/09 20:18:46;;;;;;;1.10;1.10;;;;;;;20.67;72.67;97547.19;6133085;23;20158;-92
2022/06/09 20:21:14;;;;;;;1.00;1.00;;;;;;;20.73;72.65;97572.94;6157196;23;20182;-92
2022/06/09 20:23:44;;;;;;;1.47;1.17;;;;;;;20.78;72.60;97595.25;6157293;23;20151;-92
2022/06/09 20:26:16;;;;;;;1.10;1.10;;;;;;;21.15;72.51;97651.91;6157684;23;20183;-91
2022/06/09 20:28:43;;;;;;;1.30;1.20;;;;;;;20.85;72.50;97589.53;6157554;23;20158;-92
2022/06/09 20:31:12;;;;;;;1.33;1.30;;;;;;;20.76;72.50;97596.91;6156203;23;20209;-91
2022/06/09 20:33:39;;;;;;;1.40;1.30;;;;;;;21.40;72.59;97697.00;6181567;23;20174;-91
2022/06/09 20:36:07;;;;;;;1.10;1.10;;;;;;;20.98;72.41;97624.91;6181136;23;20209;-90
2022/06/09 20:38:36;;;;;;;1.40;1.30;;;;;;;20.99;72.57;97626.63;6133032;23;20169;-91
2022/06/09 20:41:03;;;;;;;1.40;1.30;;;;;;;21.29;72.44;97683.03;6133328;23;20171;-91
2022/06/09 20:43:29;;;;;;;1.40;1.30;;;;;;;21.53;72.61;97723.00;6132990;23;20158;-91
2022/06/09 20:46:08;;;;;;;1.27;1.27;;;;;;;20.81;72.42;97607.28;6156350;23;20178;-92
2022/06/09 20:48:39;;;;;;;1.40;1.30;;;;;;;20.88;72.59;97630.50;6133197;23;20166;-91
2022/06/09 20:51:07;;;;;;;1.10;1.10;;;;;;;20.87;72.76;97622.78;6181176;23;20189;-92
2022/06/09 20:53:35;;;;;;;1.30;1.20;;;;;;;21.49;72.73;97735.66;6133087;23;20171;-91
2022/06/09 20:56:02;;;;;;;1.40;1.30;;;;;;;20.93;72.89;97643.44;6132150;23;20174;-92
2022/06/09 20:58:28;;;;;;;1.40;1.30;;;;;;;20.81;72.86;97623.44;6181394;23;20165;-91
2022/06/09 21:00:57;;;;;;;1.20;1.10;;;;;;;20.97;72.78;97663.19;6181048;23;20163;-92
2022/06/09 21:03:24;;;;;;;2.60;1.27;;;;;;;21.50;72.81;97756.16;6181043;23;20173;-92
2022/06/09 21:05:51;;;;;;;1.20;1.20;;;;;;;20.47;72.51;97572.06;6156630;23;20218;-90
2022/06/09 21:08:18;;;;;;;1.33;1.30;;;;;;;21.13;72.70;97696.09;6156424;23;20179;-92
2022/06/09 21:19:00;;;;;;;1.43;1.33;;;;;;;20.08;72.60;97504.31;6181516;23;20193;-91
2022/06/09 21:21:27;;;;;;;1.47;1.37;;;;;;;20.80;72.71;97646.38;6156525;23;20167;-91
2022/06/09 21:23:54;;;;;;;1.27;1.17;;;;;;;21.12;72.79;97699.47;6180814;23;20175;-93
2022/06/09 21:26:21;;;;;;;1.20;1.20;;;;;;;20.73;72.61;97636.78;6180029;23;20186;-92
2022/06/09 21:28:48;;;;;;;1.40;1.30;;;;;;;20.92;72.54;97675.78;6132358;23;20178;-91
2022/06/09 21:31:15;;;;;;;1.27;1.20;;;;;;;20.22;72.73;97559.25;6179764;23;20214;-91
2022/06/09 21:33:42;;;;;;;1.10;1.10;;;;;;;20.71;72.60;97644.38;6155962;23;20189;-91
2022/06/09 21:36:09;;;;;;;1.13;1.13;;;;;;;20.64;72.68;97655.22;6131499;23;20193;-91
2022/06/09 21:38:36;;;;;;;1.10;1.10;;;;;;;20.39;72.89;97596.44;6180862;23;20147;-92
2022/06/09 21:41:02;;;;;;;1.30;1.20;;;;;;;20.56;72.63;97635.31;6132113;23;20206;-91
2022/06/09 21:43:29;;;;;;;1.20;1.10;;;;;;;20.08;72.72;97560.44;6179414;23;20189;-91
2022/06/09 21:45:56;;;;;;;1.10;1.10;;;;;;;19.99;72.61;97535.44;6155141;23;20182;-92
2022/06/09 21:48:23;;;;;;;1.30;1.20;;;;;;;21.01;72.74;97708.44;6132225;23;20182;-92
2022/06/09 21:50:49;;;;;;;1.40;1.30;;;;;;;20.93;72.92;97714.97;6131660;23;20159;-92
2022/06/09 21:53:16;;;;;;;1.10;1.10;;;;;;;20.93;72.52;97702.19;6132268;23;20184;-91
2022/06/09 21:55:43;;;;;;;1.23;1.20;;;;;;;21.51;72.84;97823.53;6179546;23;20198;-92
2022/06/09 21:58:10;;;;;;;1.30;1.20;;;;;;;20.93;72.78;97713.25;6131294;23;20162;-92
2022/06/09 22:00:38;;;;;;;1.20;1.20;;;;;;;21.00;72.85;97730.59;6156182;23;20167;-92
2022/06/09 22:03:05;;;;;;;1.10;1.10;;;;;;;20.10;73.11;97560.50;6152641;23;20166;-92
2022/06/09 22:05:31;;;;;;;1.20;1.20;;;;;;;20.71;72.81;97680.13;6154225;23;20209;-92
2022/06/09 22:07:58;;;;;;;1.20;1.20;;;;;;;20.24;72.46;97589.94;6130544;23;20169;-91
2022/06/09 22:10:26;;;;;;;1.20;1.20;;;;;;;20.84;72.69;97701.88;6131696;23;20182;-92
2022/06/09 22:12:52;;;;;;;1.10;1.10;;;;;;;20.38;72.57;97617.69;6155841;23;20237;-92
2022/06/09 22:15:19;;;;;;;1.20;1.20;;;;;;;21.22;73.02;97776.50;6179980;23;20170;-91
2022/06/09 22:17:46;;;;;;;1.07;1.07;;;;;;;20.18;72.74;97580.38;6180317;23;20218;-92
2022/06/09 22:20:17;;;;;;;1.20;1.20;;;;;;;21.26;nan;97772.38;6132317;23;20162;-91
2022/06/09 22:22:44;;;;;;;1.07;1.07;;;;;;;21.05;72.68;97738.44;6156674;23;20222;-91
2022/06/09 22:25:11;;;;;;;1.20;1.10;;;;;;;20.27;72.82;97592.59;6156177;23;20189;-91
2022/06/09 22:27:37;;;;;;;1.30;1.23;;;;;;;20.61;72.76;97646.56;6156290;23;20182;-91
2022/06/09 22:30:05;;;;;;;1.23;1.13;;;;;;;20.95;72.73;97714.22;6179817;23;20182;-92
2022/06/09 22:32:31;;;;;;;1.50;1.40;;;;;;;21.66;72.74;97841.94;6156205;23;20189;-91
2022/06/09 22:34:58;;;;;;;1.10;1.10;;;;;;;20.88;72.62;97724.16;6155108;23;20162;-91
2022/06/09 22:37:24;;;;;;;1.00;1.00;;;;;;;21.06;72.61;97743.59;6155898;23;20212;-92
2022/06/09 22:39:51;;;;;;;1.03;1.03;;;;;;;20.02;72.53;97556.78;6156500;23;20158;-92
2022/06/09 22:42:18;;;;;;;1.00;1.00;;;;;;;20.02;72.46;97572.09;6155865;23;20193;-91
2022/06/09 22:44:44;;;;;;;1.30;1.20;;;;;;;19.93;72.65;97552.25;6156308;23;20162;-92
2022/06/09 22:47:11;;;;;;;1.13;1.10;;;;;;;20.77;72.71;97700.78;6181276;23;20178;-92
2022/06/09 22:49:38;;;;;;;1.10;1.10;;;;;;;20.72;72.77;97699.75;6156373;23;20166;-91
2022/06/09 22:52:05;;;;;;;1.10;1.10;;;;;;;21.40;72.53;97817.16;6180530;23;20214;-91
2022/06/09 22:54:31;;;;;;;1.47;1.17;;;;;;;20.74;72.98;97697.25;6156039;23;20161;-91
2022/06/09 22:56:58;;;;;;;1.10;1.10;;;;;;;20.33;72.59;97634.50;6132141;23;20182;-92
2022/06/09 22:59:25;;;;;;;1.10;1.10;;;;;;;20.16;72.72;97612.63;6131793;23;20163;-91
2022/06/09 23:01:51;;;;;;;1.10;1.10;;;;;;;20.81;72.48;97727.31;6181104;23;20174;-92
2022/06/09 23:04:18;;;;;;;1.07;1.07;;;;;;;20.85;72.63;97722.38;6131878;23;20186;-91
2022/06/09 23:06:45;;;;;;;1.23;1.10;;;;;;;20.27;72.56;97624.09;6180825;23;20209;-92
2022/06/09 23:09:11;;;;;;;1.30;1.20;;;;;;;20.75;72.47;97717.72;6156556;23;20159;-92
2022/06/09 23:11:38;;;;;;;1.10;1.10;;;;;;;21.22;72.64;97798.63;6156112;23;20194;-92
2022/06/09 23:14:05;;;;;;;1.10;1.10;;;;;;;20.42;73.04;97665.47;6133867;23;20181;-89
2022/06/09 23:16:33;;;;;;;1.13;1.13;;;;;;;20.40;72.72;97645.81;6134116;23;20182;-91
2022/06/09 23:19:00;;;;;;;1.00;1.00;;;;;;;20.95;72.88;97746.56;6182483;23;20190;-91
2022/06/09 23:21:27;;;;;;;1.10;1.10;;;;;;;21.07;72.92;97767.44;6158792;23;20159;-91
2022/06/09 23:23:54;;;;;;;1.40;1.20;;;;;;;20.36;72.66;97642.28;6158220;23;20169;-91
2022/06/09 23:26:23;;;;;;;1.37;1.27;;;;;;;21.17;72.71;97797.63;6158006;23;20182;-92
2022/06/09 23:28:50;;;;;;;1.40;1.30;;;;;;;21.54;72.81;97865.44;6134234;23;20181;-91
2022/06/09 23:31:17;;;;;;;1.10;1.10;;;;;;;21.39;73.04;97831.66;6157383;23;20194;-91
2022/06/09 23:33:45;;;;;;;1.10;1.10;;;;;;;20.29;72.97;97653.09;6133842;23;20178;-92
2022/06/09 23:36:18;;;;;;;1.30;1.20;;;;;;;20.28;72.62;97638.56;6157914;23;20178;-91
2022/06/09 23:38:45;;;;;;;1.30;1.20;;;;;;;20.35;72.72;97655.88;6134522;23;20166;-92
2022/06/09 23:41:12;;;;;;;1.20;1.20;;;;;;;20.76;72.74;97732.25;6133469;23;20206;-93
2022/06/09 23:43:39;;;;;;;1.00;1.00;;;;;;;21.03;72.79;97792.03;6134090;23;20154;-91
2022/06/09 23:46:06;;;;;;;1.33;1.20;;;;;;;20.81;72.76;97746.03;6132941;23;20183;-90
2022/06/09 23:48:36;;;;;;;1.10;1.10;;;;;;;20.38;72.82;97662.75;6133871;23;20155;-91
2022/06/09 23:51:11;;;;;;;1.07;1.07;;;;;;;20.42;72.50;97674.81;6134841;23;20164;-92
2022/06/09 23:53:41;;;;;;;1.30;1.20;;;;;;;20.70;72.37;97718.41;6182167;23;20165;-91
2022/06/09 23:56:10;;;;;;;1.20;1.10;;;;;;;20.29;72.72;97658.19;6158064;23;20190;-91
2022/06/09 23:58:37;;;;;;;0.90;0.90;;;;;;;21.34;72.69;97852.75;6157157;23;20189;-92
